sensor_id;sensor_type;location;lat;lon;timestamp;pressure;altitude;pressure_sealevel;temperature;humidity
64141;BME280;50436;50.618;7.932;2023-07-16T00:02:14;96151.25;;;17.93;100.00
64141;BME280;50436;50.618;7.932;2023-07-16T00:05:00;96160.09;;;17.85;100.00
64141;BME280;50436;50.618;7.932;2023-07-16T00:07:46;96173.22;;;17.78;100.00
64141;BME280;50436;50.618;7.932;2023-07-16T00:10:36;96181.59;;;17.63;100.00
64141;BME280;50436;50.618;7.932;2023-07-16T00:13:22;96196.63;;;17.55;100.00
64141;BME280;50436;50.618;7.932;2023-07-16T00:16:07;96188.13;;;17.62;100.00
64141;BME280;50436;50.618;7.932;2023-07-16T00:18:53;96189.50;;;17.45;100.00
64141;BME280;50436;50.618;7.932;2023-07-16T00:21:39;96185.72;;;17.60;100.00
64141;BME280;50436;50.618;7.932;2023-07-16T00:24:26;96178.50;;;17.55;100.00
64141;BME280;50436;50.618;7.932;2023-07-16T00:27:12;96154.03;;;17.33;100.00
64141;BME280;50436;50.618;7.932;2023-07-16T00:29:58;96165.84;;;17.37;100.00
64141;BME280;50436;50.618;7.932;2023-07-16T00:32:43;96156.53;;;17.30;100.00
64141;BME280;50436;50.618;7.932;2023-07-16T00:35:32;96167.53;;;17.33;100.00
64141;BME280;50436;50.618;7.932;2023-07-16T00:38:18;96173.44;;;17.35;100.00
64141;BME280;50436;50.618;7.932;2023-07-16T00:41:04;96174.69;;;17.10;100.00
64141;BME280;50436;50.618;7.932;2023-07-16T00:43:50;96174.97;;;16.95;100.00
64141;BME280;50436;50.618;7.932;2023-07-16T00:46:38;96173.72;;;16.87;100.00
64141;BME280;50436;50.618;7.932;2023-07-16T00:49:25;96177.53;;;16.86;100.00
64141;BME280;50436;50.618;7.932;2023-07-16T00:52:16;96173.91;;;16.77;100.00
64141;BME280;50436;50.618;7.932;2023-07-16T00:55:06;96162.72;;;16.84;100.00
64141;BME280;50436;50.618;7.932;2023-07-16T00:57:53;96156.47;;;16.69;100.00
64141;BME280;50436;50.618;7.932;2023-07-16T01:00:42;96153.00;;;16.64;100.00
64141;BME280;50436;50.618;7.932;2023-07-16T01:03:28;96166.09;;;16.76;100.00
64141;BME280;50436;50.618;7.932;2023-07-16T01:06:30;96155.28;;;16.76;100.00
64141;BME280;50436;50.618;7.932;2023-07-16T01:09:20;96162.19;;;16.63;100.00
64141;BME280;50436;50.618;7.932;2023-07-16T01:12:07;96170.97;;;16.55;100.00
64141;BME280;50436;50.618;7.932;2023-07-16T01:14:56;96172.50;;;16.61;100.00
64141;BME280;50436;50.618;7.932;2023-07-16T01:17:43;96162.06;;;16.54;100.00
64141;BME280;50436;50.618;7.932;2023-07-16T01:20:31;96162.94;;;16.50;100.00
64141;BME280;50436;50.618;7.932;2023-07-16T01:32:02;96173.75;;;16.31;100.00
64141;BME280;50436;50.618;7.932;2023-07-16T01:34:49;96175.06;;;16.33;100.00
64141;BME280;50436;50.618;7.932;2023-07-16T01:37:37;96177.16;;;16.17;100.00
64141;BME280;50436;50.618;7.932;2023-07-16T01:40:23;96194.16;;;15.99;100.00
64141;BME280;50436;50.618;7.932;2023-07-16T01:43:10;96185.00;;;15.95;100.00
64141;BME280;50436;50.618;7.932;2023-07-16T01:45:55;96189.59;;;15.95;100.00
64141;BME280;50436;50.618;7.932;2023-07-16T01:48:41;96201.63;;;15.83;100.00
64141;BME280;50436;50.618;7.932;2023-07-16T01:51:27;96201.31;;;15.85;100.00
64141;BME280;50436;50.618;7.932;2023-07-16T01:54:13;96199.84;;;15.74;100.00
64141;BME280;50436;50.618;7.932;2023-07-16T01:56:59;96219.53;;;15.74;100.00
64141;BME280;50436;50.618;7.932;2023-07-16T01:59:45;96203.53;;;15.54;100.00
64141;BME280;50436;50.618;7.932;2023-07-16T02:02:33;96210.34;;;15.46;100.00
64141;BME280;50436;50.618;7.932;2023-07-16T02:05:19;96210.63;;;15.45;100.00
64141;BME280;50436;50.618;7.932;2023-07-16T02:08:04;96214.94;;;15.46;100.00
64141;BME280;50436;50.618;7.932;2023-07-16T02:10:52;96212.25;;;15.46;100.00
64141;BME280;50436;50.618;7.932;2023-07-16T02:13:38;96220.13;;;15.42;100.00
64141;BME280;50436;50.618;7.932;2023-07-16T02:16:24;96219.81;;;15.44;100.00
64141;BME280;50436;50.618;7.932;2023-07-16T02:19:10;96227.75;;;15.30;100.00
64141;BME280;50436;50.618;7.932;2023-07-16T02:21:56;96241.06;;;15.21;100.00
64141;BME280;50436;50.618;7.932;2023-07-16T02:24:41;96242.66;;;15.22;100.00
64141;BME280;50436;50.618;7.932;2023-07-16T02:27:28;96241.38;;;15.15;100.00
64141;BME280;50436;50.618;7.932;2023-07-16T02:30:14;96252.47;;;15.08;100.00
64141;BME280;50436;50.618;7.932;2023-07-16T02:33:02;96244.44;;;15.03;100.00
64141;BME280;50436;50.618;7.932;2023-07-16T02:35:49;96253.34;;;15.03;100.00
64141;BME280;50436;50.618;7.932;2023-07-16T02:38:37;96255.47;;;15.01;100.00
64141;BME280;50436;50.618;7.932;2023-07-16T02:41:23;96260.88;;;15.01;100.00
64141;BME280;50436;50.618;7.932;2023-07-16T02:44:08;96266.53;;;15.00;100.00
64141;BME280;50436;50.618;7.932;2023-07-16T02:46:54;96270.63;;;14.92;100.00
64141;BME280;50436;50.618;7.932;2023-07-16T02:49:40;96270.09;;;14.95;100.00
64141;BME280;50436;50.618;7.932;2023-07-16T02:52:26;96274.41;;;14.91;100.00
64141;BME280;50436;50.618;7.932;2023-07-16T02:55:12;96279.84;;;14.86;100.00
64141;BME280;50436;50.618;7.932;2023-07-16T02:57:58;96284.75;;;14.79;100.00
64141;BME280;50436;50.618;7.932;2023-07-16T03:00:44;96287.16;;;14.81;100.00
64141;BME280;50436;50.618;7.932;2023-07-16T03:03:30;96277.47;;;14.80;100.00
64141;BME280;50436;50.618;7.932;2023-07-16T03:06:16;96285.00;;;14.77;100.00
64141;BME280;50436;50.618;7.932;2023-07-16T03:09:02;96291.47;;;14.76;100.00
64141;BME280;50436;50.618;7.932;2023-07-16T03:11:49;96295.56;;;14.74;100.00
64141;BME280;50436;50.618;7.932;2023-07-16T03:14:38;96292.34;;;14.72;100.00
64141;BME280;50436;50.618;7.932;2023-07-16T03:17:23;96296.13;;;14.66;100.00
64141;BME280;50436;50.618;7.932;2023-07-16T03:20:10;96292.66;;;14.60;100.00
64141;BME280;50436;50.618;7.932;2023-07-16T03:22:56;96306.69;;;14.57;100.00
64141;BME280;50436;50.618;7.932;2023-07-16T03:25:42;96303.44;;;14.55;100.00
64141;BME280;50436;50.618;7.932;2023-07-16T03:28:27;96309.09;;;14.59;100.00
64141;BME280;50436;50.618;7.932;2023-07-16T03:31:13;96314.47;;;14.59;100.00
64141;BME280;50436;50.618;7.932;2023-07-16T03:34:01;96320.16;;;14.57;100.00
64141;BME280;50436;50.618;7.932;2023-07-16T03:36:50;96326.91;;;14.49;100.00
64141;BME280;50436;50.618;7.932;2023-07-16T03:39:36;96333.63;;;14.52;100.00
64141;BME280;50436;50.618;7.932;2023-07-16T03:42:22;96323.13;;;14.56;100.00
64141;BME280;50436;50.618;7.932;2023-07-16T03:45:10;96322.84;;;14.52;100.00
64141;BME280;50436;50.618;7.932;2023-07-16T03:47:56;96326.13;;;14.49;100.00
64141;BME280;50436;50.618;7.932;2023-07-16T03:50:42;96319.66;;;14.40;100.00
64141;BME280;50436;50.618;7.932;2023-07-16T03:53:28;96315.63;;;14.37;100.00
64141;BME280;50436;50.618;7.932;2023-07-16T03:56:14;96318.03;;;14.39;100.00
64141;BME280;50436;50.618;7.932;2023-07-16T03:58:59;96317.00;;;14.35;100.00
64141;BME280;50436;50.618;7.932;2023-07-16T04:01:46;96331.53;;;14.34;100.00
64141;BME280;50436;50.618;7.932;2023-07-16T04:04:32;96326.16;;;14.29;100.00
64141;BME280;50436;50.618;7.932;2023-07-16T04:07:18;96334.75;;;14.31;100.00
64141;BME280;50436;50.618;7.932;2023-07-16T04:10:04;96331.25;;;14.35;100.00
64141;BME280;50436;50.618;7.932;2023-07-16T04:12:50;96337.44;;;14.31;100.00
64141;BME280;50436;50.618;7.932;2023-07-16T04:15:36;96334.50;;;14.32;100.00
64141;BME280;50436;50.618;7.932;2023-07-16T04:18:22;96349.81;;;14.37;100.00
64141;BME280;50436;50.618;7.932;2023-07-16T04:21:07;96341.50;;;14.33;100.00
64141;BME280;50436;50.618;7.932;2023-07-16T04:23:53;96349.81;;;14.37;100.00
64141;BME280;50436;50.618;7.932;2023-07-16T04:26:39;96361.09;;;14.39;100.00
64141;BME280;50436;50.618;7.932;2023-07-16T04:29:25;96360.56;;;14.37;100.00
64141;BME280;50436;50.618;7.932;2023-07-16T04:32:11;96367.06;;;14.31;100.00
64141;BME280;50436;50.618;7.932;2023-07-16T04:34:57;96368.66;;;14.32;100.00
64141;BME280;50436;50.618;7.932;2023-07-16T04:37:42;96365.97;;;14.37;100.00
64141;BME280;50436;50.618;7.932;2023-07-16T04:40:29;96363.78;;;14.39;100.00
64141;BME280;50436;50.618;7.932;2023-07-16T04:43:15;96361.91;;;14.39;100.00
64141;BME280;50436;50.618;7.932;2023-07-16T04:46:01;96365.97;;;14.37;100.00
64141;BME280;50436;50.618;7.932;2023-07-16T04:48:47;96373.50;;;14.40;100.00
64141;BME280;50436;50.618;7.932;2023-07-16T04:51:33;96372.41;;;14.51;100.00
64141;BME280;50436;50.618;7.932;2023-07-16T04:54:19;96380.72;;;14.55;100.00
64141;BME280;50436;50.618;7.932;2023-07-16T04:57:08;96386.91;;;14.60;100.00
64141;BME280;50436;50.618;7.932;2023-07-16T04:59:54;96391.94;;;14.77;100.00
64141;BME280;50436;50.618;7.932;2023-07-16T05:02:39;96379.25;;;14.83;100.00
64141;BME280;50436;50.618;7.932;2023-07-16T05:05:26;96385.88;;;15.11;100.00
64141;BME280;50436;50.618;7.932;2023-07-16T05:08:12;96388.59;;;15.45;100.00
64141;BME280;50436;50.618;7.932;2023-07-16T05:10:58;96390.16;;;15.51;100.00
64141;BME280;50436;50.618;7.932;2023-07-16T05:13:44;96388.78;;;15.53;100.00
64141;BME280;50436;50.618;7.932;2023-07-16T05:16:30;96395.88;;;15.44;100.00
64141;BME280;50436;50.618;7.932;2023-07-16T05:19:16;96427.50;;;15.33;100.00
64141;BME280;50436;50.618;7.932;2023-07-16T05:22:02;96406.53;;;15.20;100.00
64141;BME280;50436;50.618;7.932;2023-07-16T05:24:48;96406.53;;;15.20;100.00
64141;BME280;50436;50.618;7.932;2023-07-16T05:27:34;96394.19;;;15.14;100.00
64141;BME280;50436;50.618;7.932;2023-07-16T05:30:21;96414.44;;;15.07;100.00
64141;BME280;50436;50.618;7.932;2023-07-16T05:33:07;96407.66;;;15.09;100.00
64141;BME280;50436;50.618;7.932;2023-07-16T05:35:52;96399.06;;;15.07;100.00
64141;BME280;50436;50.618;7.932;2023-07-16T05:38:38;96414.94;;;15.09;100.00
64141;BME280;50436;50.618;7.932;2023-07-16T05:41:24;96421.16;;;15.09;100.00
64141;BME280;50436;50.618;7.932;2023-07-16T05:44:10;96418.50;;;15.04;100.00
64141;BME280;50436;50.618;7.932;2023-07-16T05:46:56;96422.16;;;15.23;100.00
64141;BME280;50436;50.618;7.932;2023-07-16T05:49:42;96420.75;;;15.31;100.00
64141;BME280;50436;50.618;7.932;2023-07-16T05:52:28;96426.13;;;15.36;100.00
64141;BME280;50436;50.618;7.932;2023-07-16T05:55:14;96448.53;;;15.31;100.00
64141;BME280;50436;50.618;7.932;2023-07-16T05:58:00;96436.03;;;15.46;100.00
64141;BME280;50436;50.618;7.932;2023-07-16T06:00:46;96445.59;;;15.23;100.00
64141;BME280;50436;50.618;7.932;2023-07-16T06:03:32;96457.09;;;15.39;100.00
64141;BME280;50436;50.618;7.932;2023-07-16T06:06:18;96446.22;;;15.54;100.00
64141;BME280;50436;50.618;7.932;2023-07-16T06:09:03;96446.28;;;15.49;100.00
64141;BME280;50436;50.618;7.932;2023-07-16T06:11:49;96450.09;;;15.43;100.00
64141;BME280;50436;50.618;7.932;2023-07-16T06:14:36;96450.72;;;15.74;100.00
64141;BME280;50436;50.618;7.932;2023-07-16T06:17:21;96441.94;;;15.92;100.00
64141;BME280;50436;50.618;7.932;2023-07-16T06:20:08;96449.69;;;15.99;100.00
64141;BME280;50436;50.618;7.932;2023-07-16T06:22:54;96444.59;;;15.97;100.00
64141;BME280;50436;50.618;7.932;2023-07-16T06:25:40;96467.09;;;16.16;100.00
64141;BME280;50436;50.618;7.932;2023-07-16T06:28:33;96456.63;;;16.10;100.00
64141;BME280;50436;50.618;7.932;2023-07-16T06:31:19;96466.00;;;15.83;100.00
64141;BME280;50436;50.618;7.932;2023-07-16T06:34:05;96476.31;;;15.76;100.00
64141;BME280;50436;50.618;7.932;2023-07-16T06:36:51;96469.13;;;15.62;100.00
64141;BME280;50436;50.618;7.932;2023-07-16T06:39:37;96463.88;;;15.80;100.00
64141;BME280;50436;50.618;7.932;2023-07-16T06:42:23;96475.72;;;15.84;100.00
64141;BME280;50436;50.618;7.932;2023-07-16T06:45:09;96465.44;;;15.86;100.00
64141;BME280;50436;50.618;7.932;2023-07-16T06:47:55;96478.63;;;15.93;100.00
64141;BME280;50436;50.618;7.932;2023-07-16T06:50:40;96463.53;;;15.87;100.00
64141;BME280;50436;50.618;7.932;2023-07-16T06:53:26;96465.91;;;15.99;100.00
64141;BME280;50436;50.618;7.932;2023-07-16T06:56:12;96458.88;;;15.98;100.00
64141;BME280;50436;50.618;7.932;2023-07-16T06:58:58;96461.53;;;16.03;100.00
64141;BME280;50436;50.618;7.932;2023-07-16T07:01:44;96465.09;;;15.98;100.00
64141;BME280;50436;50.618;7.932;2023-07-16T07:04:30;96445.63;;;16.01;100.00
64141;BME280;50436;50.618;7.932;2023-07-16T07:07:15;96457.16;;;16.12;100.00
64141;BME280;50436;50.618;7.932;2023-07-16T07:10:04;96457.41;;;16.10;100.00
64141;BME280;50436;50.618;7.932;2023-07-16T07:12:50;96465.19;;;16.17;100.00
64141;BME280;50436;50.618;7.932;2023-07-16T07:15:36;96455.47;;;16.16;100.00
64141;BME280;50436;50.618;7.932;2023-07-16T07:18:22;96449.97;;;16.26;100.00
64141;BME280;50436;50.618;7.932;2023-07-16T07:21:07;96459.28;;;16.15;100.00
64141;BME280;50436;50.618;7.932;2023-07-16T07:23:53;96454.25;;;16.32;100.00
64141;BME280;50436;50.618;7.932;2023-07-16T07:26:39;96456.75;;;16.24;100.00
64141;BME280;50436;50.618;7.932;2023-07-16T07:29:25;96465.31;;;16.36;100.00
64141;BME280;50436;50.618;7.932;2023-07-16T07:32:11;96472.53;;;16.40;100.00
64141;BME280;50436;50.618;7.932;2023-07-16T07:34:56;96461.53;;;16.61;100.00
64141;BME280;50436;50.618;7.932;2023-07-16T07:37:42;96465.19;;;16.75;100.00
64141;BME280;50436;50.618;7.932;2023-07-16T07:40:28;96473.09;;;16.66;100.00
64141;BME280;50436;50.618;7.932;2023-07-16T07:43:14;96461.16;;;16.73;100.00
64141;BME280;50436;50.618;7.932;2023-07-16T07:46:00;96467.53;;;16.58;100.00
64141;BME280;50436;50.618;7.932;2023-07-16T07:48:46;96458.69;;;16.76;100.00
64141;BME280;50436;50.618;7.932;2023-07-16T07:51:31;96470.13;;;16.92;100.00
64141;BME280;50436;50.618;7.932;2023-07-16T07:54:17;96457.28;;;17.03;100.00
64141;BME280;50436;50.618;7.932;2023-07-16T07:57:04;96475.66;;;17.06;100.00
64141;BME280;50436;50.618;7.932;2023-07-16T07:59:50;96468.53;;;16.91;100.00
64141;BME280;50436;50.618;7.932;2023-07-16T08:02:42;96475.53;;;16.92;100.00
64141;BME280;50436;50.618;7.932;2023-07-16T08:05:28;96474.09;;;16.99;100.00
64141;BME280;50436;50.618;7.932;2023-07-16T08:08:13;96474.94;;;16.95;100.00
64141;BME280;50436;50.618;7.932;2023-07-16T08:11:01;96482.63;;;17.31;100.00
64141;BME280;50436;50.618;7.932;2023-07-16T08:13:47;96485.50;;;17.39;100.00
64141;BME280;50436;50.618;7.932;2023-07-16T08:16:34;96473.59;;;17.78;100.00
64141;BME280;50436;50.618;7.932;2023-07-16T08:19:20;96471.16;;;17.58;100.00
64141;BME280;50436;50.618;7.932;2023-07-16T08:22:06;96472.69;;;17.64;100.00
64141;BME280;50436;50.618;7.932;2023-07-16T08:24:52;96483.00;;;17.43;100.00
64141;BME280;50436;50.618;7.932;2023-07-16T08:27:38;96475.56;;;17.72;100.00
64141;BME280;50436;50.618;7.932;2023-07-16T08:30:24;96472.63;;;18.06;100.00
64141;BME280;50436;50.618;7.932;2023-07-16T08:33:09;96479.28;;;17.95;100.00
64141;BME280;50436;50.618;7.932;2023-07-16T08:35:57;96474.91;;;17.62;100.00
64141;BME280;50436;50.618;7.932;2023-07-16T08:38:43;96472.94;;;17.86;100.00
64141;BME280;50436;50.618;7.932;2023-07-16T08:41:29;96493.72;;;17.91;100.00
64141;BME280;50436;50.618;7.932;2023-07-16T08:44:16;96487.72;;;17.75;100.00
64141;BME280;50436;50.618;7.932;2023-07-16T08:47:02;96491.22;;;17.94;100.00
64141;BME280;50436;50.618;7.932;2023-07-16T08:49:55;96491.22;;;18.27;99.20
64141;BME280;50436;50.618;7.932;2023-07-16T08:52:42;96495.66;;;18.23;98.72
64141;BME280;50436;50.618;7.932;2023-07-16T08:55:29;96493.63;;;18.15;100.00
64141;BME280;50436;50.618;7.932;2023-07-16T08:58:15;96493.06;;;17.99;100.00
64141;BME280;50436;50.618;7.932;2023-07-16T09:01:01;96514.53;;;18.09;99.96
64141;BME280;50436;50.618;7.932;2023-07-16T09:03:47;96504.56;;;17.91;99.81
64141;BME280;50436;50.618;7.932;2023-07-16T09:06:33;96510.97;;;17.95;100.00
64141;BME280;50436;50.618;7.932;2023-07-16T09:09:21;96504.78;;;18.27;100.00
64141;BME280;50436;50.618;7.932;2023-07-16T09:12:14;96493.56;;;18.33;96.75
64141;BME280;50436;50.618;7.932;2023-07-16T09:14:59;96507.22;;;18.42;97.44
64141;BME280;50436;50.618;7.932;2023-07-16T09:17:49;96530.69;;;18.65;93.17
64141;BME280;50436;50.618;7.932;2023-07-16T09:20:35;96521.56;;;18.43;95.27
64141;BME280;50436;50.618;7.932;2023-07-16T09:23:23;96524.81;;;18.45;93.20
64141;BME280;50436;50.618;7.932;2023-07-16T09:26:09;96526.19;;;18.75;92.27
64141;BME280;50436;50.618;7.932;2023-07-16T09:28:55;96521.50;;;18.94;92.77
64141;BME280;50436;50.618;7.932;2023-07-16T09:31:54;96514.28;;;19.17;88.77
64141;BME280;50436;50.618;7.932;2023-07-16T09:34:40;96517.78;;;19.17;91.13
64141;BME280;50436;50.618;7.932;2023-07-16T09:37:27;96516.84;;;19.49;88.16
64141;BME280;50436;50.618;7.932;2023-07-16T09:40:14;96521.00;;;19.19;89.10
64141;BME280;50436;50.618;7.932;2023-07-16T09:43:00;96522.72;;;19.15;89.23
64141;BME280;50436;50.618;7.932;2023-07-16T09:45:47;96536.38;;;19.24;90.12
64141;BME280;50436;50.618;7.932;2023-07-16T09:48:33;96525.00;;;19.36;86.54
64141;BME280;50436;50.618;7.932;2023-07-16T09:51:19;96535.94;;;19.72;85.68
64141;BME280;50436;50.618;7.932;2023-07-16T09:54:05;96532.16;;;19.32;85.84
64141;BME280;50436;50.618;7.932;2023-07-16T09:56:55;96526.72;;;19.45;85.88
64141;BME280;50436;50.618;7.932;2023-07-16T09:59:44;96514.00;;;19.82;82.98
64141;BME280;50436;50.618;7.932;2023-07-16T10:02:36;96513.09;;;19.87;82.61
64141;BME280;50436;50.618;7.932;2023-07-16T10:05:27;96513.59;;;20.11;82.58
64141;BME280;50436;50.618;7.932;2023-07-16T10:08:18;96533.28;;;19.94;81.31
64141;BME280;50436;50.618;7.932;2023-07-16T10:11:16;96519.91;;;20.20;81.73
64141;BME280;50436;50.618;7.932;2023-07-16T10:14:02;96536.78;;;20.84;76.08
64141;BME280;50436;50.618;7.932;2023-07-16T10:16:48;96528.22;;;21.00;72.71
64141;BME280;50436;50.618;7.932;2023-07-16T10:22:42;96514.50;;;21.53;72.44
64141;BME280;50436;50.618;7.932;2023-07-16T10:25:28;96521.91;;;21.79;74.47
64141;BME280;50436;50.618;7.932;2023-07-16T10:28:15;96529.38;;;21.38;74.11
64141;BME280;50436;50.618;7.932;2023-07-16T10:31:01;96518.22;;;21.66;67.89
64141;BME280;50436;50.618;7.932;2023-07-16T10:34:03;96524.47;;;21.66;68.89
64141;BME280;50436;50.618;7.932;2023-07-16T10:36:53;96521.38;;;21.42;72.35
64141;BME280;50436;50.618;7.932;2023-07-16T10:39:55;96517.88;;;21.41;68.49
64141;BME280;50436;50.618;7.932;2023-07-16T10:42:42;96522.06;;;21.56;68.31
64141;BME280;50436;50.618;7.932;2023-07-16T10:45:29;96519.03;;;21.66;63.26
64141;BME280;50436;50.618;7.932;2023-07-16T10:48:15;96522.22;;;20.80;74.52
64141;BME280;50436;50.618;7.932;2023-07-16T10:51:01;96531.47;;;21.41;65.40
64141;BME280;50436;50.618;7.932;2023-07-16T10:53:47;96518.75;;;22.37;63.87
64141;BME280;50436;50.618;7.932;2023-07-16T10:56:36;96523.75;;;22.18;57.73
64141;BME280;50436;50.618;7.932;2023-07-16T10:59:22;96530.53;;;22.93;60.36
64141;BME280;50436;50.618;7.932;2023-07-16T11:02:10;96528.59;;;23.32;50.87
64141;BME280;50436;50.618;7.932;2023-07-16T11:04:57;96528.63;;;22.76;55.67
64141;BME280;50436;50.618;7.932;2023-07-16T11:07:44;96514.56;;;22.57;57.12
64141;BME280;50436;50.618;7.932;2023-07-16T11:10:32;96518.69;;;24.07;56.54
64141;BME280;50436;50.618;7.932;2023-07-16T11:13:18;96525.19;;;23.94;49.51
64141;BME280;50436;50.618;7.932;2023-07-16T11:16:10;96520.59;;;23.56;50.57
64141;BME280;50436;50.618;7.932;2023-07-16T11:18:56;96521.47;;;23.10;56.16
64141;BME280;50436;50.618;7.932;2023-07-16T11:21:42;96517.69;;;23.91;50.76
64141;BME280;50436;50.618;7.932;2023-07-16T11:24:28;96518.88;;;24.77;47.59
64141;BME280;50436;50.618;7.932;2023-07-16T11:27:20;96497.63;;;25.19;46.02
64141;BME280;50436;50.618;7.932;2023-07-16T11:30:06;96492.03;;;25.40;41.60
64141;BME280;50436;50.618;7.932;2023-07-16T11:32:52;96516.94;;;24.24;43.37
64141;BME280;50436;50.618;7.932;2023-07-16T11:35:39;96522.44;;;24.57;44.24
64141;BME280;50436;50.618;7.932;2023-07-16T11:38:26;96520.22;;;27.65;34.10
64141;BME280;50436;50.618;7.932;2023-07-16T11:41:20;96505.69;;;29.95;29.09
64141;BME280;50436;50.618;7.932;2023-07-16T11:44:07;96517.13;;;28.98;31.37
64141;BME280;50436;50.618;7.932;2023-07-16T11:46:53;96523.66;;;26.99;34.26
64141;BME280;50436;50.618;7.932;2023-07-16T11:49:39;96535.38;;;25.99;38.12
64141;BME280;50436;50.618;7.932;2023-07-16T11:52:27;96531.22;;;29.16;30.27
64141;BME280;50436;50.618;7.932;2023-07-16T11:55:13;96529.28;;;32.23;24.68
64141;BME280;50436;50.618;7.932;2023-07-16T11:57:58;96517.63;;;34.43;22.65
64141;BME280;50436;50.618;7.932;2023-07-16T12:00:45;96525.53;;;30.98;25.37
64141;BME280;50436;50.618;7.932;2023-07-16T12:03:31;96529.69;;;27.83;30.45
64141;BME280;50436;50.618;7.932;2023-07-16T12:06:16;96519.28;;;32.87;23.67
64141;BME280;50436;50.618;7.932;2023-07-16T12:09:02;96511.66;;;35.22;19.57
64141;BME280;50436;50.618;7.932;2023-07-16T12:11:49;96513.38;;;33.21;22.89
64141;BME280;50436;50.618;7.932;2023-07-16T12:14:35;96519.81;;;29.40;26.53
64141;BME280;50436;50.618;7.932;2023-07-16T12:17:21;96520.50;;;29.11;27.66
64141;BME280;50436;50.618;7.932;2023-07-16T12:20:07;96526.75;;;31.45;25.09
64141;BME280;50436;50.618;7.932;2023-07-16T12:22:53;96529.31;;;28.97;28.16
64141;BME280;50436;50.618;7.932;2023-07-16T12:25:39;96525.97;;;28.11;29.38
64141;BME280;50436;50.618;7.932;2023-07-16T12:28:25;96520.66;;;31.25;24.98
64141;BME280;50436;50.618;7.932;2023-07-16T12:31:10;96510.31;;;30.44;26.61
64141;BME280;50436;50.618;7.932;2023-07-16T12:33:57;96526.41;;;28.71;28.65
64141;BME280;50436;50.618;7.932;2023-07-16T12:36:43;96509.94;;;30.15;27.57
64141;BME280;50436;50.618;7.932;2023-07-16T12:39:29;96504.28;;;33.38;23.05
64141;BME280;50436;50.618;7.932;2023-07-16T12:42:14;96518.31;;;29.96;25.68
64141;BME280;50436;50.618;7.932;2023-07-16T12:45:02;96532.56;;;27.71;29.49
64141;BME280;50436;50.618;7.932;2023-07-16T12:47:48;96543.81;;;27.50;32.03
64141;BME280;50436;50.618;7.932;2023-07-16T12:50:34;96528.84;;;33.36;23.94
64141;BME280;50436;50.618;7.932;2023-07-16T12:53:19;96531.06;;;36.90;19.70
64141;BME280;50436;50.618;7.932;2023-07-16T12:56:07;96536.22;;;37.19;18.23
64141;BME280;50436;50.618;7.932;2023-07-16T12:58:53;96545.91;;;33.49;21.65
64141;BME280;50436;50.618;7.932;2023-07-16T13:01:39;96534.78;;;34.02;20.86
64141;BME280;50436;50.618;7.932;2023-07-16T13:04:25;96540.81;;;36.03;19.20
64141;BME280;50436;50.618;7.932;2023-07-16T13:07:11;96532.28;;;37.94;17.68
64141;BME280;50436;50.618;7.932;2023-07-16T13:09:59;96556.41;;;38.27;16.42
64141;BME280;50436;50.618;7.932;2023-07-16T13:12:45;96526.34;;;39.63;16.63
64141;BME280;50436;50.618;7.932;2023-07-16T13:15:32;96540.31;;;36.49;17.84
64141;BME280;50436;50.618;7.932;2023-07-16T13:18:17;96551.19;;;31.91;22.45
64141;BME280;50436;50.618;7.932;2023-07-16T13:21:04;96534.03;;;35.00;19.67
64141;BME280;50436;50.618;7.932;2023-07-16T13:23:50;96540.75;;;33.90;21.06
64141;BME280;50436;50.618;7.932;2023-07-16T13:26:36;96551.13;;;30.61;24.33
64141;BME280;50436;50.618;7.932;2023-07-16T13:29:22;96535.47;;;31.06;24.29
64141;BME280;50436;50.618;7.932;2023-07-16T13:32:08;96502.66;;;35.59;21.00
64141;BME280;50436;50.618;7.932;2023-07-16T13:34:54;96531.56;;;34.15;20.83
64141;BME280;50436;50.618;7.932;2023-07-16T13:37:40;96533.66;;;36.40;19.49
64141;BME280;50436;50.618;7.932;2023-07-16T13:40:27;96526.09;;;35.02;20.34
64141;BME280;50436;50.618;7.932;2023-07-16T13:43:12;96547.19;;;30.62;24.28
64141;BME280;50436;50.618;7.932;2023-07-16T13:45:58;96566.13;;;28.70;26.44
64141;BME280;50436;50.618;7.932;2023-07-16T13:48:44;96541.16;;;27.22;28.89
64141;BME280;50436;50.618;7.932;2023-07-16T13:51:30;96549.66;;;27.80;29.20
64141;BME280;50436;50.618;7.932;2023-07-16T13:54:16;96526.75;;;31.04;25.05
64141;BME280;50436;50.618;7.932;2023-07-16T13:57:02;96524.47;;;34.03;21.50
64141;BME280;50436;50.618;7.932;2023-07-16T13:59:48;96531.91;;;34.38;20.73
64141;BME280;50436;50.618;7.932;2023-07-16T14:02:34;96555.69;;;28.59;27.37
64141;BME280;50436;50.618;7.932;2023-07-16T14:05:20;96557.97;;;25.35;34.22
64141;BME280;50436;50.618;7.932;2023-07-16T14:08:06;96550.09;;;32.06;24.60
64141;BME280;50436;50.618;7.932;2023-07-16T14:10:52;96552.84;;;34.68;20.71
64141;BME280;50436;50.618;7.932;2023-07-16T14:13:38;96546.44;;;35.51;19.41
64141;BME280;50436;50.618;7.932;2023-07-16T14:16:24;96541.22;;;38.88;17.47
64141;BME280;50436;50.618;7.932;2023-07-16T14:19:10;96544.06;;;35.46;18.44
64141;BME280;50436;50.618;7.932;2023-07-16T14:21:57;96550.50;;;32.01;22.20
64141;BME280;50436;50.618;7.932;2023-07-16T14:24:43;96545.00;;;34.38;20.80
64141;BME280;50436;50.618;7.932;2023-07-16T14:27:29;96551.81;;;33.26;20.93
64141;BME280;50436;50.618;7.932;2023-07-16T14:30:15;96537.25;;;34.92;20.40
64141;BME280;50436;50.618;7.932;2023-07-16T14:33:01;96533.56;;;34.18;20.58
64141;BME280;50436;50.618;7.932;2023-07-16T14:35:49;96538.03;;;32.35;22.00
64141;BME280;50436;50.618;7.932;2023-07-16T14:38:35;96547.72;;;30.71;24.21
64141;BME280;50436;50.618;7.932;2023-07-16T14:41:21;96549.69;;;28.73;27.16
64141;BME280;50436;50.618;7.932;2023-07-16T14:44:07;96542.56;;;29.34;26.14
64141;BME280;50436;50.618;7.932;2023-07-16T14:46:55;96551.34;;;30.19;24.66
64141;BME280;50436;50.618;7.932;2023-07-16T14:49:42;96531.75;;;29.48;25.73